createdAt,value
2023-01-07T00:01:27.349Z,7.68
2023-01-07T00:03:55.593Z,7.30
2023-01-07T00:06:36.809Z,6.47
2023-01-07T00:09:06.229Z,6.88
2023-01-07T00:11:36.310Z,7.00
2023-01-07T00:14:04.876Z,8.63
2023-01-07T00:16:33.166Z,7.75
2023-01-07T00:19:01.414Z,8.77
2023-01-07T00:21:29.257Z,8.00
2023-01-07T00:23:57.644Z,8.65
2023-01-07T00:26:26.946Z,8.45
2023-01-07T00:28:54.391Z,8.07
2023-01-07T00:31:23.435Z,8.73
2023-01-07T00:33:59.643Z,8.50
2023-01-07T00:36:29.590Z,8.75
2023-01-07T00:39:01.423Z,8.38
2023-01-07T00:41:28.340Z,7.18
2023-01-07T00:43:55.074Z,6.97
2023-01-07T00:46:22.353Z,6.20
2023-01-07T00:48:49.117Z,6.20
2023-01-07T00:51:17.422Z,5.78
2023-01-07T00:53:44.279Z,5.32
2023-01-07T00:56:12.505Z,5.63
2023-01-07T00:58:39.195Z,6.50
2023-01-07T01:01:06.340Z,5.75
2023-01-07T01:03:33.605Z,4.53
2023-01-07T01:06:05.736Z,5.45
2023-01-07T01:08:32.340Z,5.40
2023-01-07T01:11:09.592Z,5.47
2023-01-07T01:16:08.613Z,4.90
2023-01-07T01:18:35.414Z,5.72
2023-01-07T01:21:06.957Z,6.18
2023-01-07T01:23:33.961Z,5.88
2023-01-07T01:26:09.053Z,6.20
2023-01-07T01:28:35.987Z,6.40
2023-01-07T01:31:03.155Z,6.22
2023-01-07T01:33:30.043Z,6.95
2023-01-07T01:35:56.711Z,6.65
2023-01-07T01:38:23.220Z,6.30
2023-01-07T01:40:49.805Z,6.93
2023-01-07T01:43:48.995Z,7.43
2023-01-07T01:46:35.039Z,7.13
2023-01-07T01:49:31.343Z,6.30
2023-01-07T01:52:10.045Z,6.75
2023-01-07T01:54:36.911Z,6.40
2023-01-07T01:57:05.750Z,6.60
2023-01-07T01:59:35.805Z,7.03
2023-01-07T02:05:13.303Z,7.15
2023-01-07T02:07:39.811Z,7.47
2023-01-07T02:10:17.438Z,6.63
2023-01-07T02:12:47.103Z,6.75
2023-01-07T02:15:52.380Z,6.85
2023-01-07T02:18:37.718Z,6.75
2023-01-07T02:21:52.320Z,7.07
2023-01-07T02:24:21.533Z,7.60
2023-01-07T02:27:20.896Z,7.22
2023-01-07T02:30:09.889Z,7.00
2023-01-07T02:32:42.499Z,7.55
2023-01-07T02:35:37.410Z,7.70
2023-01-07T02:38:16.081Z,7.20
2023-01-07T02:40:58.143Z,7.55
2023-01-07T02:43:33.302Z,7.32
2023-01-07T02:46:10.410Z,7.03
2023-01-07T02:48:38.834Z,7.07
2023-01-07T02:51:05.660Z,7.65
2023-01-07T02:53:33.035Z,8.00
2023-01-07T02:56:21.372Z,8.32
2023-01-07T02:59:06.170Z,7.63
2023-01-07T03:01:38.327Z,8.52
2023-01-07T03:04:32.723Z,8.18
2023-01-07T03:07:24.634Z,7.80
2023-01-07T03:10:12.113Z,7.72
2023-01-07T03:12:41.960Z,8.15
2023-01-07T03:15:16.424Z,8.63
2023-01-07T03:18:08.889Z,8.10
2023-01-07T03:20:38.628Z,7.93
2023-01-07T03:23:09.761Z,8.98
2023-01-07T03:28:07.679Z,9.70
2023-01-07T03:30:35.386Z,10.13
2023-01-07T03:33:10.031Z,10.70
2023-01-07T03:35:40.283Z,10.68
2023-01-07T03:38:08.461Z,11.38
2023-01-07T03:40:35.154Z,10.77
2023-01-07T03:43:01.772Z,11.23
2023-01-07T03:45:29.312Z,10.00
2023-01-07T03:47:57.222Z,9.98
2023-01-07T03:50:24.172Z,10.13
2023-01-07T03:52:53.508Z,10.18
2023-01-07T03:55:20.080Z,10.18
2023-01-07T03:57:46.752Z,9.95
2023-01-07T04:00:14.659Z,10.35
2023-01-07T04:02:42.927Z,11.23
2023-01-07T04:05:10.896Z,11.25
2023-01-07T04:07:38.038Z,10.40
2023-01-07T04:10:06.294Z,10.27
2023-01-07T04:12:33.236Z,11.00
2023-01-07T04:14:59.887Z,11.27
2023-01-07T04:17:26.646Z,10.70
2023-01-07T04:19:53.382Z,10.88
2023-01-07T04:22:20.201Z,9.40
2023-01-07T04:24:46.707Z,10.13
2023-01-07T04:27:13.376Z,9.98
2023-01-07T04:29:39.933Z,10.55
2023-01-07T04:32:06.439Z,9.65
2023-01-07T04:34:33.077Z,10.35
2023-01-07T04:36:59.700Z,9.98
2023-01-07T04:39:26.208Z,10.60
2023-01-07T04:41:52.790Z,10.15
2023-01-07T04:44:19.451Z,9.88
2023-01-07T04:46:45.983Z,10.52
2023-01-07T04:49:13.115Z,9.98
2023-01-07T04:51:39.766Z,9.77
2023-01-07T04:54:06.322Z,10.48
2023-01-07T04:56:33.010Z,9.60
2023-01-07T04:58:59.660Z,9.38
2023-01-07T05:01:26.295Z,10.30
2023-01-07T05:03:52.944Z,9.60
2023-01-07T05:06:19.523Z,10.23
2023-01-07T05:08:46.025Z,9.80
2023-01-07T05:11:12.744Z,9.25
2023-01-07T05:13:39.324Z,10.25
2023-01-07T05:16:06.217Z,9.48
2023-01-07T05:18:32.861Z,10.48
2023-01-07T05:20:59.592Z,9.75
2023-01-07T05:23:26.101Z,10.13
2023-01-07T05:25:52.722Z,9.77
2023-01-07T05:28:19.308Z,9.20
2023-01-07T05:30:47.356Z,8.77
2023-01-07T05:33:14.027Z,9.35
2023-01-07T05:35:40.676Z,8.90
2023-01-07T05:38:07.263Z,9.43
2023-01-07T05:40:33.908Z,9.05
2023-01-07T05:43:00.752Z,9.10
2023-01-07T05:45:27.261Z,8.20
2023-01-07T05:47:53.811Z,7.88
2023-01-07T05:50:20.460Z,8.63
2023-01-07T05:52:47.456Z,8.63
2023-01-07T05:55:14.166Z,8.75
2023-01-07T05:57:40.763Z,7.70
2023-01-07T06:00:10.346Z,7.18
2023-01-07T06:02:37.389Z,7.55
2023-01-07T06:05:04.745Z,8.50
2023-01-07T06:07:31.319Z,7.55
2023-01-07T06:09:57.986Z,8.23
2023-01-07T06:12:24.586Z,7.18
2023-01-07T06:14:51.103Z,7.90
2023-01-07T06:17:17.814Z,7.50
2023-01-07T06:19:44.411Z,7.55
2023-01-07T06:22:10.944Z,7.47
2023-01-07T06:24:38.346Z,7.90
2023-01-07T06:27:04.916Z,7.53
2023-01-07T06:29:31.452Z,7.47
2023-01-07T06:31:58.381Z,7.00
2023-01-07T06:34:24.959Z,7.07
2023-01-07T06:36:51.498Z,7.38
2023-01-07T06:39:18.089Z,7.70
2023-01-07T06:41:44.637Z,7.60
2023-01-07T06:44:11.247Z,6.80
2023-01-07T06:46:37.936Z,7.82
2023-01-07T06:49:04.742Z,8.23
2023-01-07T06:51:31.417Z,7.97
2023-01-07T06:53:58.573Z,8.38
2023-01-07T06:56:25.264Z,8.27
2023-01-07T06:58:51.808Z,7.55
2023-01-07T07:01:18.475Z,8.32
2023-01-07T07:03:45.108Z,7.80
2023-01-07T07:06:11.616Z,7.43
2023-01-07T07:08:38.215Z,7.75
2023-01-07T07:11:04.902Z,7.18
2023-01-07T07:13:31.429Z,6.78
2023-01-07T07:15:58.116Z,7.13
2023-01-07T07:18:24.807Z,6.70
2023-01-07T07:20:51.306Z,6.72
2023-01-07T07:23:17.991Z,7.18
2023-01-07T07:25:44.755Z,7.38
2023-01-07T07:28:11.274Z,7.70
2023-01-07T07:30:45.586Z,7.55
2023-01-07T07:33:15.111Z,6.78
2023-01-07T07:35:42.146Z,6.68
2023-01-07T07:38:08.659Z,6.97
2023-01-07T07:40:35.239Z,6.50
2023-01-07T07:43:10.549Z,6.70
2023-01-07T07:48:07.478Z,6.47
2023-01-07T07:50:34.639Z,5.75
2023-01-07T07:53:01.420Z,5.75
2023-01-07T07:55:28.856Z,6.75
2023-01-07T07:57:56.768Z,6.35
2023-01-07T08:00:23.476Z,6.93
2023-01-07T08:02:50.327Z,6.47
2023-01-07T08:05:16.974Z,6.72
2023-01-07T08:07:43.627Z,6.97
2023-01-07T08:10:10.332Z,6.82
2023-01-07T08:12:38.523Z,7.93
2023-01-07T08:15:06.477Z,7.15
2023-01-07T08:17:33.155Z,7.10
2023-01-07T08:19:59.645Z,6.68
2023-01-07T08:22:26.247Z,6.72
2023-01-07T08:24:53.044Z,7.15
2023-01-07T08:27:19.633Z,7.05
2023-01-07T08:29:46.244Z,7.30
2023-01-07T08:32:13.304Z,6.82
2023-01-07T08:34:39.841Z,6.78
2023-01-07T08:37:06.524Z,8.07
2023-01-07T08:39:33.195Z,6.00
2023-01-07T08:41:59.756Z,6.45
2023-01-07T08:44:26.350Z,6.65
2023-01-07T08:46:54.294Z,4.95
2023-01-07T08:49:21.137Z,3.78
2023-01-07T08:51:47.781Z,3.40
2023-01-07T08:54:14.454Z,3.05
2023-01-07T08:56:41.015Z,2.80
2023-01-07T08:59:07.673Z,3.28
2023-01-07T09:01:34.501Z,2.97
2023-01-07T09:04:01.094Z,3.50
2023-01-07T09:06:27.745Z,3.45
2023-01-07T09:08:54.360Z,3.08
2023-01-07T09:11:20.940Z,3.67
2023-01-07T09:13:47.494Z,3.50
2023-01-07T09:16:14.269Z,3.70
2023-01-07T09:18:40.826Z,3.97
2023-01-07T09:21:07.522Z,4.03
2023-01-07T09:23:34.518Z,3.90
2023-01-07T09:26:01.383Z,3.83
2023-01-07T09:28:28.015Z,4.35
2023-01-07T09:30:56.660Z,4.28
2023-01-07T09:33:23.564Z,4.43
2023-01-07T09:35:50.166Z,4.65
2023-01-07T09:38:16.847Z,4.13
2023-01-07T09:40:44.775Z,4.70
2023-01-07T09:44:00.067Z,4.35
2023-01-07T09:46:20.900Z,5.00
2023-01-07T09:48:54.247Z,4.78
2023-01-07T09:51:26.854Z,5.07
2023-01-07T09:53:56.823Z,4.80
2023-01-07T09:56:27.020Z,4.63
2023-01-07T09:58:55.143Z,4.00
2023-01-07T10:01:50.865Z,3.30
2023-01-07T10:04:37.735Z,3.55
2023-01-07T10:07:23.226Z,3.20
2023-01-07T10:10:27.441Z,3.47
2023-01-07T10:13:16.590Z,3.53
2023-01-07T10:15:46.182Z,3.40
2023-01-07T10:18:21.627Z,2.88
2023-01-07T10:20:56.302Z,2.90
2023-01-07T10:23:28.872Z,2.55
2023-01-07T10:25:57.029Z,2.38
2023-01-07T10:28:40.223Z,2.35
2023-01-07T10:31:16.713Z,2.78
2023-01-07T10:33:45.980Z,2.22
2023-01-07T10:36:23.850Z,1.80
2023-01-07T10:39:27.713Z,2.40
2023-01-07T10:42:30.722Z,2.45
2023-01-07T10:45:16.144Z,1.85
2023-01-07T10:48:14.963Z,1.98
2023-01-07T10:50:53.503Z,1.80
2023-01-07T10:53:27.691Z,2.10
2023-01-07T10:56:12.940Z,2.20
2023-01-07T10:58:42.347Z,2.15
2023-01-07T11:01:18.562Z,2.17
2023-01-07T11:03:50.096Z,2.60
2023-01-07T11:06:19.974Z,2.10
2023-01-07T11:08:46.915Z,2.10
2023-01-07T11:11:17.016Z,2.03
2023-01-07T11:13:58.602Z,2.08
2023-01-07T11:16:29.246Z,2.20
2023-01-07T11:19:10.579Z,2.40
2023-01-07T11:21:44.710Z,2.70
2023-01-07T11:24:32.812Z,2.50
2023-01-07T11:27:03.234Z,2.60
2023-01-07T11:30:05.175Z,2.60
2023-01-07T11:32:41.069Z,2.90
2023-01-07T11:35:29.120Z,2.92
2023-01-07T11:37:56.850Z,2.80
2023-01-07T11:40:32.526Z,3.05
2023-01-07T11:43:01.940Z,2.72
2023-01-07T11:45:33.005Z,2.65
2023-01-07T11:48:05.341Z,2.20
2023-01-07T11:50:42.060Z,2.75
2023-01-07T11:53:14.723Z,2.80
2023-01-07T11:56:07.735Z,2.75
2023-01-07T11:58:41.172Z,2.03
2023-01-07T12:01:07.680Z,2.40
2023-01-07T12:03:35.600Z,2.30
2023-01-07T12:06:33.004Z,2.63
2023-01-07T12:09:16.616Z,2.33
2023-01-07T12:11:45.346Z,2.95
2023-01-07T12:14:31.549Z,2.53
2023-01-07T12:17:20.264Z,2.60
2023-01-07T12:20:17.705Z,2.55
2023-01-07T12:23:02.631Z,2.53
2023-01-07T12:25:44.370Z,2.40
2023-01-07T12:28:19.803Z,2.55
2023-01-07T12:31:06.602Z,2.33
2023-01-07T12:33:50.670Z,2.63
2023-01-07T12:36:37.395Z,2.63
2023-01-07T12:39:09.888Z,2.58
2023-01-07T12:41:44.053Z,2.33
2023-01-07T12:44:10.627Z,2.90
2023-01-07T12:46:43.018Z,2.85
2023-01-07T12:49:24.045Z,2.65
2023-01-07T12:52:08.331Z,2.70
2023-01-07T12:55:03.741Z,2.72
2023-01-07T12:57:37.034Z,2.50
2023-01-07T13:00:15.522Z,2.35
2023-01-07T13:03:00.489Z,2.40
2023-01-07T13:05:46.682Z,2.60
2023-01-07T13:08:23.749Z,2.30
2023-01-07T13:13:48.731Z,2.30
2023-01-07T13:16:15.510Z,2.40
2023-01-07T13:18:42.146Z,2.50
2023-01-07T13:21:14.090Z,2.08
2023-01-07T13:24:08.847Z,1.83
2023-01-07T13:26:53.674Z,2.20
2023-01-07T13:29:55.249Z,2.40
2023-01-07T13:32:37.034Z,2.20
2023-01-07T13:35:16.455Z,1.95
2023-01-07T13:38:07.817Z,2.22
2023-01-07T13:40:45.743Z,2.45
2023-01-07T13:43:12.236Z,2.30
2023-01-07T13:45:42.519Z,2.10
2023-01-07T13:48:22.813Z,1.85
2023-01-07T13:51:07.929Z,2.28
2023-01-07T13:53:39.925Z,2.60
2023-01-07T13:56:18.835Z,2.53
2023-01-07T13:58:50.313Z,2.28
2023-01-07T14:01:33.771Z,3.08
2023-01-07T14:04:03.536Z,2.42
2023-01-07T14:06:30.019Z,2.40
2023-01-07T14:08:56.732Z,2.42
2023-01-07T14:11:29.537Z,2.30
2023-01-07T14:14:15.416Z,2.53
2023-01-07T14:16:57.179Z,1.90
2023-01-07T14:19:34.385Z,2.05
2023-01-07T14:22:13.313Z,2.22
2023-01-07T14:25:01.405Z,1.80
2023-01-07T14:27:43.254Z,1.92
2023-01-07T14:30:21.982Z,1.90
2023-01-07T14:33:04.013Z,1.73
2023-01-07T14:35:36.771Z,1.60
2023-01-07T14:38:34.265Z,1.85
2023-01-07T14:41:03.484Z,1.83
2023-01-07T14:43:48.241Z,1.83
2023-01-07T14:46:24.125Z,1.67
2023-01-07T14:49:03.360Z,1.80
2023-01-07T14:51:45.115Z,2.22
2023-01-07T14:54:32.764Z,2.03
2023-01-07T14:57:07.508Z,1.95
2023-01-07T14:59:40.354Z,2.13
2023-01-07T15:02:31.319Z,1.95
2023-01-07T15:05:23.401Z,1.90
2023-01-07T15:08:15.880Z,2.00
2023-01-07T15:11:02.843Z,1.83
2023-01-07T15:13:49.908Z,2.03
2023-01-07T15:16:21.489Z,1.80
2023-01-07T15:18:49.515Z,2.00
2023-01-07T15:21:35.131Z,1.77
2023-01-07T15:24:14.332Z,2.30
2023-01-07T15:26:54.309Z,1.83
2023-01-07T15:29:23.940Z,2.17
2023-01-07T15:32:06.578Z,2.30
2023-01-07T15:34:33.440Z,2.30
2023-01-07T15:37:04.846Z,2.17
2023-01-07T15:39:40.944Z,2.45
2023-01-07T15:42:16.163Z,2.60
2023-01-07T15:44:43.165Z,2.90
2023-01-07T15:47:41.259Z,2.47
2023-01-07T15:50:28.018Z,2.47
2023-01-07T15:52:54.587Z,2.20
2023-01-07T15:55:27.991Z,2.55
2023-01-07T15:58:01.582Z,2.40
2023-01-07T16:00:28.298Z,2.28
2023-01-07T16:02:55.844Z,2.60
2023-01-07T16:05:24.979Z,2.33
2023-01-07T16:07:53.113Z,2.50
2023-01-07T16:10:34.114Z,2.70
2023-01-07T16:13:18.316Z,2.53
2023-01-07T16:15:45.000Z,2.28
2023-01-07T16:18:13.389Z,2.38
2023-01-07T16:20:48.767Z,2.63
2023-01-07T16:23:30.576Z,2.30
2023-01-07T16:26:04.768Z,2.25
2023-01-07T16:29:02.909Z,2.10
2023-01-07T16:31:30.952Z,2.55
2023-01-07T16:33:59.747Z,1.90
2023-01-07T16:36:34.389Z,1.80
2023-01-07T16:39:06.545Z,2.25
2023-01-07T16:41:34.270Z,1.75
2023-01-07T16:44:00.988Z,2.13
2023-01-07T16:46:36.630Z,2.47
2023-01-07T16:49:09.149Z,2.20
2023-01-07T16:51:37.847Z,2.20
2023-01-07T16:54:29.517Z,2.00
2023-01-07T16:56:58.489Z,2.10
2023-01-07T16:59:29.399Z,2.28
2023-01-07T17:04:27.984Z,2.05
2023-01-07T17:06:54.725Z,1.90
2023-01-07T17:09:25.135Z,2.00
2023-01-07T17:11:52.908Z,1.98
2023-01-07T17:14:34.711Z,2.17
2023-01-07T17:17:16.654Z,2.38
2023-01-07T17:20:09.710Z,2.17
2023-01-07T17:22:41.971Z,2.17
2023-01-07T17:25:10.162Z,2.50
2023-01-07T17:27:59.967Z,2.30
2023-01-07T17:30:33.313Z,2.10
2023-01-07T17:33:00.024Z,1.98
2023-01-07T17:35:28.141Z,2.20
2023-01-07T17:37:55.113Z,1.98
2023-01-07T17:40:21.841Z,2.03
2023-01-07T17:43:09.346Z,2.10
2023-01-07T17:45:36.099Z,2.45
2023-01-07T17:48:02.719Z,2.13
2023-01-07T17:50:36.170Z,2.38
2023-01-07T17:53:03.702Z,2.70
2023-01-07T17:55:33.847Z,2.15
2023-01-07T17:58:00.519Z,2.10
2023-01-07T18:00:30.788Z,2.35
2023-01-07T18:02:58.233Z,2.50
2023-01-07T18:05:26.390Z,2.17
2023-01-07T18:07:53.438Z,2.03
2023-01-07T18:10:25.971Z,2.30
2023-01-07T18:12:52.615Z,2.30
2023-01-07T18:15:27.257Z,2.40
2023-01-07T18:17:54.044Z,2.20
2023-01-07T18:20:22.211Z,2.30
2023-01-07T18:22:49.732Z,2.17
2023-01-07T18:25:22.313Z,2.13
2023-01-07T18:27:52.820Z,1.80
2023-01-07T18:30:21.563Z,2.17
2023-01-07T18:32:49.143Z,2.20
2023-01-07T18:35:15.810Z,2.22
2023-01-07T18:37:42.393Z,2.55
2023-01-07T18:40:10.043Z,2.10
2023-01-07T18:42:36.981Z,2.30
2023-01-07T18:45:09.019Z,2.55
2023-01-07T18:47:35.652Z,2.50
2023-01-07T18:50:02.972Z,2.47
2023-01-07T18:52:31.025Z,2.55
2023-01-07T18:54:58.011Z,2.50
2023-01-07T18:57:24.662Z,2.08
2023-01-07T18:59:51.143Z,2.63
2023-01-07T19:02:20.730Z,2.17
2023-01-07T19:04:48.572Z,2.58
2023-01-07T19:07:19.789Z,2.45
2023-01-07T19:09:46.863Z,2.20
2023-01-07T19:12:14.443Z,2.05
2023-01-07T19:14:41.580Z,2.15
2023-01-07T19:17:08.523Z,2.45
2023-01-07T19:19:47.293Z,2.28
2023-01-07T19:22:16.386Z,2.25
2023-01-07T19:24:43.685Z,2.90
2023-01-07T19:27:10.903Z,1.92
2023-01-07T19:29:37.754Z,2.38
2023-01-07T19:32:04.500Z,2.10
2023-01-07T19:34:31.087Z,2.20
2023-01-07T19:36:57.799Z,2.17
2023-01-07T19:39:24.628Z,1.88
2023-01-07T19:41:51.209Z,2.22
2023-01-07T19:44:18.261Z,1.77
2023-01-07T19:46:44.834Z,2.00
2023-01-07T19:49:12.970Z,1.67
2023-01-07T19:51:42.096Z,2.10
2023-01-07T19:54:17.515Z,1.83
2023-01-07T19:56:44.510Z,2.20
2023-01-07T19:59:11.353Z,1.95
2023-01-07T20:01:39.048Z,1.70
2023-01-07T20:04:07.863Z,2.20
2023-01-07T20:06:38.817Z,1.85
2023-01-07T20:11:38.644Z,1.95
2023-01-07T20:14:07.142Z,2.10
2023-01-07T20:16:35.995Z,1.95
2023-01-07T20:19:03.024Z,1.98
2023-01-07T20:21:29.571Z,1.70
2023-01-07T20:23:56.217Z,1.70
2023-01-07T20:26:32.783Z,1.55
2023-01-07T20:29:00.483Z,1.73
2023-01-07T20:31:28.972Z,1.90
2023-01-07T20:33:55.952Z,1.90
2023-01-07T20:36:26.015Z,1.70
2023-01-07T20:38:52.882Z,1.70
2023-01-07T20:41:22.121Z,1.50
2023-01-07T20:43:54.073Z,1.40
2023-01-07T20:46:21.060Z,1.33
2023-01-07T20:48:47.758Z,1.35
2023-01-07T20:51:15.015Z,1.60
2023-01-07T20:53:43.066Z,1.85
2023-01-07T20:56:12.601Z,1.55
2023-01-07T20:58:40.582Z,1.88
2023-01-07T21:01:10.958Z,1.73
2023-01-07T21:03:38.812Z,1.20
2023-01-07T21:06:08.325Z,1.80
2023-01-07T21:08:36.513Z,1.75
2023-01-07T21:11:03.049Z,1.80
2023-01-07T21:13:29.715Z,1.40
2023-01-07T21:16:02.093Z,1.58
2023-01-07T21:18:28.990Z,1.58
2023-01-07T21:20:56.035Z,1.70
2023-01-07T21:23:22.761Z,1.60
2023-01-07T21:25:49.683Z,1.58
2023-01-07T21:28:16.383Z,1.55
2023-01-07T21:30:43.096Z,1.77
2023-01-07T21:33:09.669Z,1.83
2023-01-07T21:35:40.061Z,1.38
2023-01-07T21:38:06.715Z,1.63
2023-01-07T21:40:33.374Z,1.40
2023-01-07T21:43:00.005Z,1.33
2023-01-07T21:45:26.593Z,1.80
2023-01-07T21:47:53.817Z,1.92
2023-01-07T21:50:20.505Z,1.77
2023-01-07T21:52:47.024Z,1.60
2023-01-07T21:55:13.506Z,1.73
2023-01-07T21:57:40.221Z,1.60
2023-01-07T22:00:07.500Z,1.95
2023-01-07T22:02:34.087Z,1.30
2023-01-07T22:05:00.754Z,1.55
2023-01-07T22:07:27.371Z,1.98
2023-01-07T22:09:54.021Z,1.38
2023-01-07T22:12:20.716Z,1.20
2023-01-07T22:14:47.501Z,1.30
2023-01-07T22:17:15.599Z,1.40
2023-01-07T22:19:42.344Z,1.60
2023-01-07T22:22:09.027Z,2.03
2023-01-07T22:24:35.706Z,1.60
2023-01-07T22:27:02.352Z,1.00
2023-01-07T22:29:32.226Z,1.27
2023-01-07T22:31:59.058Z,1.40
2023-01-07T22:34:25.749Z,1.40
2023-01-07T22:37:12.027Z,1.20
2023-01-07T22:39:46.776Z,1.40
2023-01-07T22:42:37.372Z,1.48
2023-01-07T22:45:15.290Z,1.17
2023-01-07T22:47:46.463Z,1.40
2023-01-07T22:50:14.636Z,1.88
2023-01-07T22:52:42.813Z,1.80
2023-01-07T22:55:11.004Z,1.80
2023-01-07T22:57:39.005Z,1.48
2023-01-07T23:00:10.216Z,1.40
2023-01-07T23:02:36.809Z,1.70
2023-01-07T23:05:03.463Z,1.40
2023-01-07T23:07:30.068Z,1.35
2023-01-07T23:09:56.645Z,1.75
2023-01-07T23:12:23.152Z,1.55
2023-01-07T23:14:49.728Z,1.92
2023-01-07T23:17:16.387Z,1.50
2023-01-07T23:19:42.869Z,1.70
2023-01-07T23:22:09.444Z,1.55
2023-01-07T23:24:36.242Z,1.58
2023-01-07T23:27:02.746Z,1.55
2023-01-07T23:29:29.334Z,1.88
2023-01-07T23:31:55.999Z,1.20
2023-01-07T23:34:22.584Z,1.23
2023-01-07T23:36:49.215Z,1.55
2023-01-07T23:39:16.042Z,1.30
2023-01-07T23:41:42.613Z,1.60
2023-01-07T23:44:09.219Z,1.42
2023-01-07T23:46:35.889Z,1.45
2023-01-07T23:49:02.406Z,1.27
2023-01-07T23:51:29.055Z,1.50
2023-01-07T23:53:55.594Z,1.50
2023-01-07T23:56:22.584Z,1.30
2023-01-07T23:58:50.090Z,1.33
